メインページ
METAR-TAF:

METAR-TAF

空港 :

平壌, 朝鮮民主主義人民共和国

平壌国際空港

緯度: 39-02N, 経度: 125-47E, 海抜: 36m

METAR: 見つかりません

時間: 13:33 (05:03 UTC)

予報

当レポートは7時間13分前の21:50(UTC)に作成
予報は21日の 00時(UTC)から 21日の 24時(UTC)まで有効
の風 6kt
視程: 0800m
高度1000ftの千切れ雲あり
21日の 01時(UTC)から 21日の 03時(UTC)まで徐々に
視程: 3000m
21日の 04時(UTC)から 21日の 06時(UTC)まで徐々に
北西の風 10kt
視程10km以上
1,500メートル以下は雲なし、積乱雲なし

TAF: ZKPY 202150Z 2100/2124 35003MPS 0800 FG BKN010 BECMG 2101/2103 3000 BR BECMG 2104/2106 32005MPS CAVOK

4,000以上の空港の気象観測と天気予報(METAR報とTAF報)

利用可能な観測所は地図上に黄色い丸と赤い丸で示す。

丸の上にカーソルを重ねると観測所名を参照できる。

次にクリックすると気象観測と天気予報を参照できる。

マップの切り替え:黒色「×」印の緑ボタンをクリックして拡大、「-」印の緑ボタンをクリックして縮小、緑色の三角印をクリックして隣りの地図に切り替え


METAR-TAF: